Stations météo

Publicité
St-Raphael, France (7680): Température de l'air & dewpoint: 17.05.2019 23:00:00 - 23.05.2019 23:00:00 (CEST)St-Raphael, France (7680): Vitesse du vent & gusts: 17.05.2019 23:00:00 - 23.05.2019 23:00:00 (CEST)St-Raphael, France (7680): Direction du vent: 17.05.2019 23:00:00 - 23.05.2019 23:00:00 (CEST)St-Raphael, France (7680): Quantités de précipitations: 17.05.2019 23:00:00 - 23.05.2019 23:00:00 (CEST)
Date & Time tt [°C] td [°C] ff [km/h] ff [knt] fx [km/h] fx [knt] dd rr [mm]
23.05.2019 23:00:00 - - - - - - - -
23.05.2019 22:00:00 16,1 13,4 2 1 8 4 SSE 0,0
23.05.2019 21:00:00 17,0 14,1 4 2 15 8 S 0,0
23.05.2019 20:00:00 18,1 14,4 8 4 18 10 SSE -
23.05.2019 19:00:00 19,0 14,5 9 5 18 10 SSE 0,0
23.05.2019 18:00:00 19,2 14,0 11 6 22 12 SE 0,0
23.05.2019 17:00:00 19,6 13,8 13 7 28 15 SE 0,0
23.05.2019 16:00:00 20,2 14,1 13 7 26 14 SE 0,0
23.05.2019 15:00:00 20,4 14,1 13 7 28 15 SE 0,0
23.05.2019 14:00:00 20,5 14,6 11 6 24 13 SE -
23.05.2019 13:00:00 20,4 14,7 13 7 24 13 SSE 0,0
23.05.2019 12:00:00 19,5 14,5 11 6 22 12 SE 0,0
23.05.2019 11:00:00 19,0 13,6 11 6 22 12 SE 0,0
23.05.2019 10:00:00 19,4 13,8 5 3 18 10 NE 0,0
23.05.2019 09:00:00 17,6 14,1 8 4 16 9 NE 0,0
23.05.2019 08:00:00 15,7 14,1 2 1 5 3 NW -
23.05.2019 07:00:00 14,6 13,5 2 1 8 4 W 0,0
23.05.2019 06:00:00 14,0 13,0 2 1 8 4 WNW 0,0
23.05.2019 05:00:00 13,6 12,7 5 3 9 5 W 0,0
23.05.2019 04:00:00 14,1 12,8 2 1 8 4 WNW 0,0
23.05.2019 03:00:00 13,6 12,3 4 2 9 5 WNW 0,0
23.05.2019 02:00:00 13,8 12,5 2 1 8 4 NNE -
23.05.2019 01:00:00 14,7 13,1 2 1 8 4 N 0,0
23.05.2019 00:00:00 15,7 14,1 5 3 9 5 E 0,0
22.05.2019 23:00:00 16,1 14,3 4 2 13 7 E 0,0
22.05.2019 22:00:00 16,5 14,5 8 4 16 9 ESE 0,0
22.05.2019 21:00:00 17,0 14,5 8 4 16 9 ESE 0,0
22.05.2019 20:00:00 17,2 14,7 8 4 18 10 SE -
22.05.2019 19:00:00 18,5 15,2 9 5 16 9 SE 0,0
22.05.2019 18:00:00 18,9 15,0 8 4 24 13 SE 0,0
22.05.2019 17:00:00 19,5 14,9 13 7 26 14 SE 0,0
22.05.2019 16:00:00 19,8 15,2 15 8 29 16 SE 0,0
22.05.2019 15:00:00 20,3 14,9 13 7 26 14 SE 0,0
22.05.2019 14:00:00 20,3 14,4 11 6 28 15 ESE -
22.05.2019 13:00:00 20,6 14,3 13 7 22 12 ESE 0,0
22.05.2019 12:00:00 19,1 13,1 9 5 18 10 ESE 0,0
22.05.2019 11:00:00 18,1 13,0 0 0 11 6 N 0,0
22.05.2019 10:00:00 16,8 12,5 8 4 16 9 WNW 0,0
22.05.2019 09:00:00 15,3 12,2 9 5 15 8 WNW 0,0
22.05.2019 08:00:00 13,6 11,6 8 4 15 8 NW -
22.05.2019 07:00:00 12,9 11,3 8 4 13 7 NW 0,0
22.05.2019 06:00:00 12,3 10,9 8 4 13 7 WNW 0,0
22.05.2019 05:00:00 12,1 10,8 5 3 15 8 NW 0,0
22.05.2019 04:00:00 12,4 11,0 4 2 11 6 WNW 0,0
22.05.2019 03:00:00 12,5 11,1 4 2 9 5 NW 0,0
22.05.2019 02:00:00 13,0 11,1 4 2 9 5 NW -
22.05.2019 01:00:00 13,2 11,3 4 2 9 5 W 0,0
22.05.2019 00:00:00 14,2 11,4 0 0 9 5 N 0,0
21.05.2019 23:00:00 14,7 11,8 2 1 8 4 NNW 0,0
21.05.2019 22:00:00 15,3 11,3 2 1 9 5 S 0,0
21.05.2019 21:00:00 16,9 11,8 5 3 18 10 SE 0,0
21.05.2019 20:00:00 18,0 12,4 9 5 22 12 ESE -
21.05.2019 19:00:00 18,7 12,7 11 6 28 15 ESE 0,0
21.05.2019 18:00:00 18,8 12,5 15 8 34 18 ESE 0,0
21.05.2019 17:00:00 19,1 13,1 15 8 29 16 ESE 0,0
21.05.2019 16:00:00 19,7 12,7 15 8 28 15 ESE 0,0
21.05.2019 15:00:00 19,3 11,8 15 8 28 15 ESE 0,0
21.05.2019 14:00:00 19,2 13,4 15 8 29 16 SE -
21.05.2019 13:00:00 19,2 13,1 15 8 28 15 SE 0,0
21.05.2019 12:00:00 18,8 13,4 13 7 22 12 E 0,0
21.05.2019 11:00:00 18,8 12,5 8 4 13 7 SSE 0,0
21.05.2019 10:00:00 18,1 12,1 4 2 13 7 N 0,0
21.05.2019 09:00:00 15,4 12,3 8 4 18 10 WNW 0,0
21.05.2019 08:00:00 11,9 10,8 8 4 16 9 WNW -
21.05.2019 07:00:00 10,1 9,6 5 3 13 7 WNW 0,0
21.05.2019 06:00:00 9,3 8,8 4 2 11 6 WNW 0,2
21.05.2019 05:00:00 9,9 9,3 4 2 8 4 WNW 0,0
21.05.2019 04:00:00 10,5 9,9 4 2 8 4 WNW 0,0
21.05.2019 03:00:00 11,1 10,3 4 2 9 5 NW 0,0
21.05.2019 02:00:00 11,7 10,8 4 2 9 5 NNW -
21.05.2019 01:00:00 12,3 11,4 4 2 11 6 NNW 0,0
21.05.2019 00:00:00 13,4 12,1 4 2 8 4 NE 0,0
20.05.2019 23:00:00 14,0 12,2 2 1 8 4 NNE 0,0
20.05.2019 22:00:00 15,1 12,2 4 2 13 7 SSE 0,0
20.05.2019 21:00:00 16,2 12,6 4 2 13 7 SE 0,0
20.05.2019 20:00:00 16,9 11,0 5 3 16 9 ESE -
20.05.2019 19:00:00 18,1 10,9 8 4 21 11 ENE 0,0
20.05.2019 18:00:00 17,0 12,7 9 5 21 11 ENE 0,0
20.05.2019 17:00:00 17,0 12,1 9 5 18 10 E 0,2
20.05.2019 16:00:00 19,4 13,6 11 6 22 12 ESE 0,0
20.05.2019 15:00:00 18,7 13,3 11 6 26 14 SSE 0,0
20.05.2019 14:00:00 18,4 13,0 15 8 26 14 SE -
20.05.2019 13:00:00 18,8 13,0 11 6 28 15 SSE 0,0
20.05.2019 12:00:00 19,7 12,9 8 4 15 8 SSE 0,0
20.05.2019 11:00:00 18,4 11,2 4 2 11 6 WSW 0,0
20.05.2019 10:00:00 15,8 10,8 4 2 15 8 NW 0,0
20.05.2019 09:00:00 13,7 11,4 8 4 16 9 NW 0,0
20.05.2019 08:00:00 12,5 11,2 8 4 18 10 NNW -
20.05.2019 07:00:00 11,5 10,7 4 2 13 7 NW 0,0
20.05.2019 06:00:00 11,3 10,4 5 3 16 9 NNW 0,0
20.05.2019 05:00:00 11,7 10,8 8 4 15 8 NNW 0,0
20.05.2019 04:00:00 11,9 11,1 8 4 18 10 NNW 0,0
20.05.2019 03:00:00 12,2 11,3 5 3 13 7 NW 0,0
20.05.2019 02:00:00 12,6 11,7 5 3 15 8 NW -
20.05.2019 01:00:00 13,0 11,7 8 4 15 8 NW 0,0
20.05.2019 00:00:00 13,3 12,0 5 3 13 7 NW 0,0
19.05.2019 23:00:00 13,7 12,6 4 2 9 5 NNW 0,0
19.05.2019 22:00:00 14,1 12,8 4 2 9 5 NW 0,2
19.05.2019 21:00:00 14,4 13,3 0 0 8 4 N 0,4
19.05.2019 20:00:00 14,7 13,2 2 1 11 6 S -
19.05.2019 19:00:00 15,0 13,5 4 2 13 7 S 1,0
19.05.2019 18:00:00 16,3 13,0 2 1 11 6 S 0,0
19.05.2019 17:00:00 15,6 13,1 5 3 11 6 E 0,0
19.05.2019 16:00:00 15,3 13,3 8 4 13 7 ESE 0,0
19.05.2019 15:00:00 14,7 13,2 8 4 18 10 E 0,0
19.05.2019 14:00:00 14,3 13,2 8 4 16 9 E -
19.05.2019 13:00:00 14,5 12,7 9 5 22 12 SE 2,0
19.05.2019 12:00:00 17,0 12,7 11 6 18 10 SE 0,0
19.05.2019 11:00:00 15,8 11,8 5 3 13 7 W 0,0
19.05.2019 10:00:00 14,6 12,1 4 2 16 9 NNW 0,0
19.05.2019 09:00:00 13,4 12,0 8 4 15 8 NW 0,0
19.05.2019 08:00:00 12,8 12,0 4 2 11 6 NW -
19.05.2019 07:00:00 12,3 11,7 4 2 8 4 NW 0,2
19.05.2019 06:00:00 12,3 11,7 4 2 8 4 NW 0,0
19.05.2019 05:00:00 12,4 11,6 2 1 8 4 NW 0,0
19.05.2019 04:00:00 12,7 11,9 0 0 8 4 N 0,0
19.05.2019 03:00:00 12,9 12,1 4 2 9 5 N 1,0
19.05.2019 02:00:00 13,2 12,3 2 1 5 3 WNW -
19.05.2019 01:00:00 13,2 11,9 4 2 11 6 N 0,4
19.05.2019 00:00:00 13,4 12,1 5 3 11 6 NW 0,2
18.05.2019 23:00:00 13,8 12,5 5 3 11 6 W 0,4
18.05.2019 22:00:00 14,4 13,1 5 3 11 6 NW 0,6
18.05.2019 21:00:00 15,1 13,6 4 2 9 5 WNW 0,8
18.05.2019 20:00:00 15,8 13,3 2 1 8 4 N -
18.05.2019 19:00:00 16,6 13,1 4 2 8 4 WNW 0,4
18.05.2019 18:00:00 17,4 12,1 4 2 15 8 SSW 0,2
18.05.2019 17:00:00 17,8 12,5 9 5 18 10 SW 0,0
18.05.2019 16:00:00 18,2 11,5 9 5 21 11 SSE 0,0
18.05.2019 15:00:00 19,4 11,2 8 4 22 12 SSE 0,0
18.05.2019 14:00:00 19,9 7,9 8 4 16 9 W -
18.05.2019 13:00:00 18,9 9,1 5 3 18 10 WSW 0,0
18.05.2019 12:00:00 17,8 10,9 5 3 18 10 SE 0,0
18.05.2019 11:00:00 17,9 10,3 9 5 21 11 NW 0,0
18.05.2019 10:00:00 15,8 10,8 8 4 22 12 NNW 0,0
18.05.2019 09:00:00 13,8 9,6 9 5 26 14 NW 0,0
18.05.2019 08:00:00 13,3 9,7 13 7 28 15 NW -
18.05.2019 07:00:00 12,6 10,1 9 5 28 15 NW 0,0
18.05.2019 06:00:00 12,4 10,1 9 5 22 12 NW 0,0
18.05.2019 05:00:00 12,5 10,6 9 5 24 13 NW 0,2
18.05.2019 04:00:00 13,1 10,5 9 5 22 12 WNW 0,0
18.05.2019 03:00:00 13,5 10,3 9 5 22 12 WNW 0,2
18.05.2019 02:00:00 16,1 9,3 5 3 34 18 NNE -
18.05.2019 01:00:00 16,5 8,2 11 6 42 23 ENE 0,0
18.05.2019 00:00:00 16,6 8,5 16 9 41 22 ENE 0,0
17.05.2019 23:00:00 16,7 7,6 18 10 44 24 ENE 0,0

tt = Température de l'air
td = dewpoint
ff = Vitesse du vent
fx = gusts
dd = Direction du vent
rr = Quantités de précipitations

stations d'obs. à proximité